HSP weather

Ingalls Field
Hot Springs, Virginia, United States

Public forecast

Using degrees Fahrenheit for public forecast. Weather courtesy of forecast.io.

Current aviation weather report (METAR) for Ingalls Field

Retrieved 2020/08/04 02:35 UTC (0 seconds ago):

KHSP 040235Z AUTO 10007KT M1/4SM +DZ OVC002 19/17 A3014 RMK AO2 T01860173

Closest aviation forecast (TAF) to Ingalls Field

Closest forecast is Greenbrier Valley Airport, 27.4 nm (50.7 km) WSW. Retrieved 2020-08-04 00:36 UTC (2 hours ago):

TAF KLWB 032333Z 0400/0424 VRB05KT P6SM BKN100 FM040600 07003KT P6SM OVC050 FM041000 35006KT P6SM OVC035 FM041400 30008KT P6SM SCT040